Time;durP1;ratioP1;P1;durP2;ratioP2;P2;SDS_P1;SDS_P2;PMS_P1;PMS_P2;Temp;Humidity;BMP_temperature;BMP_pressure;BME280_temperature;BME280_humidity;BME280_pressure;Samples;Min_cycle;Max_cycle;Signal;HPM_P1;HPM_P2
2023/06/22 00:00:15;;;;;;;9.70;7.00;;;;;;;19.94;100.00;100927.19;6236810;28;20506;-86
2023/06/22 00:03:24;;;;;;;10.95;7.35;;;;;;;19.94;100.00;100929.84;6238426;28;20151;-85
2023/06/22 00:06:26;;;;;;;11.53;8.03;;;;;;;19.83;100.00;100942.56;6235375;28;20401;-85
2023/06/22 00:09:28;;;;;;;10.65;7.80;;;;;;;19.67;100.00;100944.25;6236324;28;20053;-86
2023/06/22 00:12:29;;;;;;;9.60;8.45;;;;;;;19.57;100.00;100941.78;6236275;28;20061;-85
2023/06/22 00:15:31;;;;;;;12.82;8.18;;;;;;;19.53;100.00;100947.56;6254872;28;20053;-86
2023/06/22 00:18:33;;;;;;;11.18;8.45;;;;;;;19.51;100.00;100965.28;6256831;28;20052;-86
2023/06/22 00:21:35;;;;;;;9.25;8.13;;;;;;;19.47;100.00;100954.28;6248796;28;20048;-85
2023/06/22 00:24:37;;;;;;;10.30;8.15;;;;;;;19.37;100.00;100956.28;6244091;28;20041;-85
2023/06/22 00:27:38;;;;;;;8.68;7.78;;;;;;;19.29;100.00;100956.31;6255400;28;20091;-86
2023/06/22 00:30:40;;;;;;;9.75;8.02;;;;;;;19.14;100.00;100956.19;6246813;28;20049;-85
2023/06/22 00:33:42;;;;;;;10.23;7.88;;;;;;;19.15;100.00;100952.56;6222251;28;20587;-85
2023/06/22 00:36:44;;;;;;;10.45;7.72;;;;;;;19.17;100.00;100953.22;6245616;28;20056;-86
2023/06/22 00:39:45;;;;;;;9.25;7.15;;;;;;;19.15;100.00;100956.03;6247153;28;20041;-86
2023/06/22 00:42:47;;;;;;;12.63;8.30;;;;;;;19.13;100.00;100950.13;6251612;28;20037;-85
2023/06/22 00:45:49;;;;;;;9.32;7.95;;;;;;;19.18;100.00;100943.53;6256105;28;20048;-86
2023/06/22 00:48:52;;;;;;;9.70;8.02;;;;;;;19.11;100.00;100933.72;6250444;28;20056;-86
2023/06/22 00:51:57;;;;;;;10.50;8.27;;;;;;;19.12;100.00;100932.72;6245955;28;20053;-85
2023/06/22 00:55:01;;;;;;;12.15;8.18;;;;;;;19.13;100.00;100930.94;6254862;28;20045;-85
2023/06/22 00:58:07;;;;;;;11.50;8.35;;;;;;;19.09;100.00;100924.38;6244253;28;20558;-86
2023/06/22 01:01:09;;;;;;;10.90;8.15;;;;;;;19.06;100.00;100922.91;6255907;28;20049;-85
2023/06/22 01:04:11;;;;;;;10.02;8.02;;;;;;;19.01;100.00;100914.72;6249622;28;20135;-86
2023/06/22 01:07:38;;;;;;;11.68;8.80;;;;;;;19.05;100.00;100917.81;6251967;28;20617;-85
2023/06/22 01:11:05;;;;;;;11.93;9.65;;;;;;;19.02;100.00;100908.47;6235712;28;20771;-86
2023/06/22 01:14:14;;;;;;;11.50;8.90;;;;;;;18.97;100.00;100899.47;6235256;28;20068;-85
2023/06/22 01:17:17;;;;;;;11.15;8.90;;;;;;;18.94;100.00;100898.00;6238297;28;20045;-85
2023/06/22 01:20:20;;;;;;;10.48;8.70;;;;;;;18.90;100.00;100897.50;6245092;28;20053;-85
2023/06/22 01:23:51;;;;;;;13.55;8.07;;;;;;;18.80;100.00;100894.25;6245116;28;20064;-85
2023/06/22 01:27:05;;;;;;;;;;;;;;;18.69;100.00;100898.00;6241319;28;20117;-85
2023/06/22 01:30:10;;;;;;;11.32;9.05;;;;;;;18.62;100.00;100889.16;6240341;28;19925;-85
2023/06/22 01:33:13;;;;;;;15.90;10.48;;;;;;;18.58;100.00;100908.81;6230141;28;20050;-85
2023/06/22 01:36:17;;;;;;;12.82;8.80;;;;;;;18.50;100.00;100925.34;6238675;28;20050;-85
2023/06/22 01:39:21;;;;;;;12.38;8.40;;;;;;;18.40;100.00;100921.25;6254213;28;20049;-85
2023/06/22 01:42:28;;;;;;;12.23;9.10;;;;;;;18.35;100.00;100924.38;6250484;28;20060;-85
2023/06/22 01:45:30;;;;;;;12.18;8.40;;;;;;;18.26;100.00;100909.59;6235420;28;20140;-85
2023/06/22 01:48:32;;;;;;;12.30;9.18;;;;;;;18.19;100.00;100898.16;6251547;28;20064;-85
2023/06/22 01:51:36;;;;;;;11.77;8.95;;;;;;;18.18;100.00;100897.31;6237412;28;20053;-85
2023/06/22 01:54:39;;;;;;;15.23;9.02;;;;;;;18.21;100.00;100894.41;6236506;28;20722;-85
2023/06/22 01:57:41;;;;;;;13.05;9.52;;;;;;;18.20;100.00;100905.03;6239916;28;20033;-86
2023/06/22 02:00:53;;;;;;;15.43;10.00;;;;;;;18.26;100.00;100907.84;6253567;28;20045;-85
2023/06/22 02:04:12;;;;;;;11.52;10.20;;;;;;;18.28;100.00;100902.41;6233310;28;20144;-85
2023/06/22 02:07:17;;;;;;;13.30;10.67;;;;;;;18.34;100.00;100908.81;6250757;28;20049;-86
2023/06/22 02:10:21;;;;;;;12.82;9.63;;;;;;;18.36;100.00;100904.22;6242258;28;20050;-85
2023/06/22 02:13:25;;;;;;;14.27;9.77;;;;;;;18.32;100.00;100905.53;6254237;28;20136;-85
2023/06/22 02:16:29;;;;;;;12.95;9.95;;;;;;;18.32;100.00;100906.34;6234147;28;20129;-85
2023/06/22 02:19:33;;;;;;;13.60;11.15;;;;;;;18.34;100.00;100914.88;6248879;28;20140;-86
2023/06/22 02:22:35;;;;;;;15.73;11.13;;;;;;;18.37;100.00;100917.16;6237283;28;20403;-85
2023/06/22 02:25:37;;;;;;;15.70;11.65;;;;;;;18.37;100.00;100913.72;6223941;28;20067;-85
2023/06/22 02:28:39;;;;;;;13.45;11.60;;;;;;;18.41;100.00;100912.41;6259239;28;20045;-85
2023/06/22 02:31:41;;;;;;;17.45;11.63;;;;;;;18.36;100.00;100910.31;6240439;28;20041;-85
2023/06/22 02:34:47;;;;;;;16.10;11.10;;;;;;;18.32;100.00;100918.66;6243217;28;20095;-85
2023/06/22 02:37:51;;;;;;;15.80;11.68;;;;;;;18.21;100.00;100917.13;6238377;28;20597;-85
2023/06/22 02:40:53;;;;;;;15.27;11.38;;;;;;;18.23;100.00;100925.66;6239235;28;20044;-86
2023/06/22 02:43:55;;;;;;;13.65;10.85;;;;;;;18.15;100.00;100926.47;6256462;28;20044;-86
2023/06/22 02:46:58;;;;;;;12.82;10.65;;;;;;;18.18;100.00;100933.19;6236790;28;20083;-85
2023/06/22 02:50:00;;;;;;;15.07;9.80;;;;;;;18.14;100.00;100939.75;6245146;28;20091;-86
2023/06/22 02:53:04;;;;;;;16.52;10.30;;;;;;;18.04;100.00;100950.38;6235394;28;20583;-85
2023/06/22 02:56:10;;;;;;;20.23;11.85;;;;;;;18.03;100.00;100953.94;6221852;28;20818;-85
2023/06/22 02:59:12;;;;;;;12.80;10.38;;;;;;;18.04;100.00;100959.03;6243072;28;20411;-85
2023/06/22 03:02:14;;;;;;;15.18;11.13;;;;;;;18.08;100.00;100956.91;6242073;28;20048;-85
2023/06/22 03:05:18;;;;;;;17.45;11.40;;;;;;;18.07;100.00;100953.47;6239162;28;20061;-85
2023/06/22 03:08:21;;;;;;;13.77;10.85;;;;;;;17.99;100.00;100957.88;6210885;28;20049;-85
2023/06/22 03:11:23;;;;;;;13.95;10.88;;;;;;;17.95;100.00;100954.75;6230366;28;20084;-85
2023/06/22 03:14:25;;;;;;;14.23;11.43;;;;;;;17.95;100.00;100961.78;6240269;28;20046;-85
2023/06/22 03:17:27;;;;;;;15.30;10.63;;;;;;;17.94;100.00;100950.50;6255357;28;20033;-85
2023/06/22 03:20:33;;;;;;;15.25;11.00;;;;;;;17.97;100.00;100949.34;6240722;28;20490;-85
2023/06/22 03:23:36;;;;;;;16.48;11.48;;;;;;;17.95;100.00;100948.69;6238968;28;20041;-85
2023/06/22 03:26:38;;;;;;;15.90;11.55;;;;;;;18.02;100.00;100949.69;6240223;28;20048;-85
2023/06/22 03:29:39;;;;;;;14.52;11.52;;;;;;;18.12;100.00;100946.94;6261787;28;20561;-85
2023/06/22 03:32:42;;;;;;;13.23;11.07;;;;;;;18.18;100.00;100954.16;6247622;28;20203;-85
2023/06/22 03:35:44;;;;;;;15.52;11.52;;;;;;;18.25;100.00;100945.47;6244854;28;20046;-85
2023/06/22 03:38:47;;;;;;;17.52;11.65;;;;;;;18.31;100.00;100949.28;6229437;28;20830;-85
2023/06/22 03:41:49;;;;;;;14.90;11.80;;;;;;;18.36;100.00;100951.41;6236818;28;20060;-86
2023/06/22 03:44:52;;;;;;;14.52;11.75;;;;;;;18.39;100.00;100945.84;6227980;28;20064;-86
2023/06/22 03:47:53;;;;;;;14.68;11.48;;;;;;;18.43;100.00;100942.75;6236977;28;20115;-85
2023/06/22 03:50:55;;;;;;;17.20;12.07;;;;;;;18.54;100.00;100941.59;6237990;28;20052;-85
2023/06/22 03:53:57;;;;;;;13.85;11.77;;;;;;;18.65;100.00;100948.31;6238427;28;20049;-86
2023/06/22 03:56:59;;;;;;;14.27;10.85;;;;;;;18.70;100.00;100938.97;6237381;28;20043;-85
2023/06/22 04:00:02;;;;;;;15.10;11.43;;;;;;;18.81;100.00;100944.91;6254053;28;20051;-86
2023/06/22 04:03:13;;;;;;;14.95;12.02;;;;;;;18.83;100.00;100948.16;6258295;28;20503;-86
2023/06/22 04:06:15;;;;;;;17.63;12.60;;;;;;;18.83;100.00;100943.78;6253389;28;20037;-86
2023/06/22 04:09:17;;;;;;;15.30;12.10;;;;;;;18.82;100.00;100946.53;6259669;28;20038;-85
2023/06/22 04:12:19;;;;;;;13.45;11.95;;;;;;;18.84;100.00;100949.81;6242124;28;20049;-86
2023/06/22 04:15:21;;;;;;;14.30;11.45;;;;;;;18.84;100.00;100947.22;6236282;28;20179;-85
2023/06/22 04:18:23;;;;;;;13.10;11.57;;;;;;;18.90;100.00;100957.03;6227303;28;20049;-85
2023/06/22 04:21:24;;;;;;;15.65;12.15;;;;;;;19.01;100.00;100951.47;6250357;28;20059;-85
2023/06/22 04:24:26;;;;;;;14.90;11.38;;;;;;;19.04;100.00;100945.88;6249402;28;20396;-85
2023/06/22 04:27:28;;;;;;;19.88;12.15;;;;;;;19.10;100.00;100949.63;6239345;28;20036;-86
2023/06/22 04:30:31;;;;;;;16.83;12.80;;;;;;;19.12;100.00;100945.84;6239507;28;20057;-86
2023/06/22 04:33:33;;;;;;;16.08;12.07;;;;;;;19.18;100.00;100943.53;6237234;28;20045;-87
2023/06/22 04:36:41;;;;;;;13.35;11.32;;;;;;;19.22;100.00;100952.72;6258147;28;20056;-86
2023/06/22 04:39:43;;;;;;;19.58;11.88;;;;;;;19.28;100.00;100954.69;6245191;28;20047;-86
2023/06/22 04:42:52;;;;;;;16.98;11.48;;;;;;;19.34;100.00;100951.38;6239731;28;20308;-86
2023/06/22 04:45:54;;;;;;;17.67;11.18;;;;;;;19.47;100.00;100954.28;6243134;28;20044;-86
2023/06/22 04:48:55;;;;;;;17.52;11.48;;;;;;;19.59;100.00;100958.19;6248661;28;20506;-86
2023/06/22 04:51:57;;;;;;;14.73;10.90;;;;;;;19.69;100.00;100951.97;6237833;28;20115;-86
2023/06/22 04:55:00;;;;;;;14.68;11.52;;;;;;;19.73;100.00;100956.72;6236467;28;20042;-87
2023/06/22 04:58:04;;;;;;;14.25;10.93;;;;;;;19.76;100.00;100955.56;6239433;28;20578;-86
2023/06/22 05:01:08;;;;;;;15.43;13.20;;;;;;;19.76;100.00;100951.09;6231836;28;20045;-87
2023/06/22 05:04:10;;;;;;;18.27;13.50;;;;;;;19.77;100.00;100954.53;6233075;28;20073;-86
2023/06/22 05:07:13;;;;;;;15.25;12.57;;;;;;;19.81;100.00;100942.72;6232589;28;20044;-86
2023/06/22 05:10:15;;;;;;;15.15;12.55;;;;;;;19.93;100.00;100951.84;6231378;28;20060;-87
2023/06/22 05:13:16;;;;;;;15.27;11.88;;;;;;;20.00;100.00;100942.28;6241049;28;20068;-86
2023/06/22 05:16:23;;;;;;;16.58;12.70;;;;;;;20.15;100.00;100931.88;6235815;28;20041;-87
2023/06/22 05:19:31;;;;;;;15.27;12.98;;;;;;;20.27;100.00;100927.00;6240336;28;20053;-87
2023/06/22 05:22:33;;;;;;;16.42;13.27;;;;;;;20.42;100.00;100930.53;6235241;28;20518;-86
2023/06/22 05:25:35;;;;;;;15.18;13.00;;;;;;;20.56;100.00;100936.03;6239249;28;20113;-87
2023/06/22 05:28:36;;;;;;;18.63;13.13;;;;;;;20.68;100.00;100937.25;6248581;28;20937;-87
2023/06/22 05:31:40;;;;;;;17.65;13.07;;;;;;;20.78;100.00;100939.63;6257721;28;20041;-87
2023/06/22 05:34:42;;;;;;;16.38;12.40;;;;;;;20.88;100.00;100934.94;6253101;28;20048;-86
2023/06/22 05:37:44;;;;;;;13.52;12.07;;;;;;;20.95;100.00;100933.22;6247101;28;20383;-87
2023/06/22 05:40:47;;;;;;;16.30;12.70;;;;;;;21.02;100.00;100935.97;6258154;28;20049;-86
2023/06/22 05:43:49;;;;;;;16.02;12.73;;;;;;;21.07;100.00;100931.00;6242800;28;20048;-87
2023/06/22 05:46:51;;;;;;;16.65;14.18;;;;;;;21.04;100.00;100941.84;6264234;28;20486;-87
2023/06/22 05:49:53;;;;;;;14.23;12.07;;;;;;;21.03;100.00;100935.78;6245882;28;20049;-87
2023/06/22 05:52:54;;;;;;;17.70;12.75;;;;;;;20.96;100.00;100940.13;6240514;28;20045;-87
2023/06/22 05:55:56;;;;;;;15.05;12.35;;;;;;;20.93;100.00;100939.66;6238888;28;20041;-87
2023/06/22 05:58:58;;;;;;;17.23;12.65;;;;;;;20.86;100.00;100935.09;6242314;28;20045;-87
2023/06/22 06:02:00;;;;;;;14.75;12.30;;;;;;;20.86;100.00;100926.41;6243602;28;20218;-87
2023/06/22 06:05:02;;;;;;;15.52;12.32;;;;;;;20.93;100.00;100931.78;6245807;28;20045;-87
2023/06/22 06:08:05;;;;;;;15.82;12.80;;;;;;;20.93;100.00;100935.22;6240624;28;20041;-86
2023/06/22 06:11:07;;;;;;;17.27;13.15;;;;;;;21.00;100.00;100937.97;6246332;28;20064;-87
2023/06/22 06:14:09;;;;;;;16.75;12.77;;;;;;;21.04;100.00;100931.31;6232528;28;20056;-87
2023/06/22 06:17:11;;;;;;;13.30;11.65;;;;;;;21.15;100.00;100930.06;6244996;28;20044;-87
2023/06/22 06:20:13;;;;;;;15.23;12.98;;;;;;;21.25;100.00;100931.44;6264436;28;20044;-87
2023/06/22 06:23:14;;;;;;;15.75;11.82;;;;;;;21.26;100.00;100930.44;6245046;28;20049;-87
2023/06/22 06:26:16;;;;;;;14.35;11.75;;;;;;;21.32;100.00;100922.81;6244337;28;20041;-87
2023/06/22 06:29:18;;;;;;;14.30;12.82;;;;;;;21.34;100.00;100910.28;6254308;28;20045;-87
2023/06/22 06:32:20;;;;;;;15.15;12.10;;;;;;;21.30;100.00;100913.28;6250902;28;20503;-87
2023/06/22 06:35:22;;;;;;;16.23;11.57;;;;;;;21.32;100.00;100913.09;6245595;28;20136;-87
2023/06/22 06:38:23;;;;;;;14.27;11.27;;;;;;;21.32;100.00;100907.03;6250990;28;20144;-86
2023/06/22 06:41:25;;;;;;;12.85;10.57;;;;;;;21.37;100.00;100904.66;6260959;28;20124;-87
2023/06/22 06:44:27;;;;;;;14.60;10.98;;;;;;;21.42;100.00;100897.88;6255332;28;20124;-87
2023/06/22 06:47:29;;;;;;;12.52;11.13;;;;;;;21.47;100.00;100903.41;6255421;28;20049;-87
2023/06/22 06:50:31;;;;;;;13.40;11.05;;;;;;;21.61;100.00;100900.91;6249369;28;20044;-86
2023/06/22 06:53:33;;;;;;;16.98;11.32;;;;;;;21.78;100.00;100904.16;6258601;28;20112;-86
2023/06/22 06:56:35;;;;;;;14.45;10.30;;;;;;;21.87;100.00;100910.97;6247960;28;20506;-87
2023/06/22 06:59:37;;;;;;;14.02;10.90;;;;;;;22.00;100.00;100912.91;6255596;28;20609;-87
2023/06/22 07:02:40;;;;;;;14.38;11.60;;;;;;;22.09;100.00;100917.09;6250310;28;20096;-87
2023/06/22 07:05:41;;;;;;;16.98;9.82;;;;;;;22.14;100.00;100917.34;6246869;28;20072;-86
2023/06/22 07:08:43;;;;;;;12.77;9.60;;;;;;;22.24;100.00;100922.34;6261240;28;20045;-86
2023/06/22 07:11:45;;;;;;;10.93;8.23;;;;;;;22.35;100.00;100916.53;6247161;28;20056;-87
2023/06/22 07:14:46;;;;;;;14.35;9.45;;;;;;;22.46;100.00;100925.75;6246094;28;20693;-86
2023/06/22 07:17:48;;;;;;;16.10;10.88;;;;;;;22.57;100.00;100915.50;6252452;28;20041;-87
2023/06/22 07:20:50;;;;;;;11.77;10.02;;;;;;;22.68;100.00;100910.72;6245032;28;20048;-87
2023/06/22 07:23:52;;;;;;;11.65;9.63;;;;;;;22.79;100.00;100916.28;6240221;28;20052;-87
2023/06/22 07:26:54;;;;;;;10.30;9.20;;;;;;;22.91;100.00;100910.50;6259402;28;20537;-87
2023/06/22 07:29:55;;;;;;;10.10;8.73;;;;;;;23.00;100.00;100910.19;6245565;28;20795;-87
2023/06/22 07:32:58;;;;;;;10.75;8.40;;;;;;;22.99;100.00;100905.09;6250103;28;20407;-87
2023/06/22 07:36:01;;;;;;;9.43;7.40;;;;;;;22.92;100.00;100896.28;6235459;28;20044;-87
2023/06/22 07:39:03;;;;;;;12.70;7.97;;;;;;;22.90;100.00;100893.81;6244170;28;20056;-86
2023/06/22 07:42:05;;;;;;;10.80;7.78;;;;;;;22.94;100.00;100899.53;6260408;28;20045;-87
2023/06/22 07:45:08;;;;;;;7.90;6.93;;;;;;;23.08;100.00;100903.09;6262778;28;20096;-87
2023/06/22 07:48:10;;;;;;;9.00;7.70;;;;;;;23.40;100.00;100907.75;6255971;28;20034;-87
2023/06/22 07:51:14;;;;;;;9.80;7.85;;;;;;;23.71;100.00;100905.66;6237983;28;20084;-87
2023/06/22 07:54:17;;;;;;;9.02;7.65;;;;;;;23.92;100.00;100908.16;6239469;28;20509;-87
2023/06/22 07:57:19;;;;;;;13.65;7.38;;;;;;;24.10;100.00;100899.66;6236091;28;20038;-87
2023/06/22 08:00:21;;;;;;;8.77;7.47;;;;;;;24.29;100.00;100901.50;6237439;28;20053;-87
2023/06/22 08:03:23;;;;;;;10.32;7.60;;;;;;;24.45;100.00;100894.19;6237796;28;20049;-87
2023/06/22 08:06:25;;;;;;;11.82;7.65;;;;;;;24.65;100.00;100902.16;6239763;28;20045;-86
2023/06/22 08:09:33;;;;;;;10.18;7.95;;;;;;;24.82;100.00;100897.22;6241230;28;20045;-86
2023/06/22 08:12:35;;;;;;;11.40;8.00;;;;;;;24.93;100.00;100907.22;6246111;28;20418;-87
2023/06/22 08:15:37;;;;;;;11.15;8.27;;;;;;;25.15;100.00;100905.13;6253855;28;20041;-87
2023/06/22 08:18:39;;;;;;;11.07;8.57;;;;;;;25.33;100.00;100909.78;6246079;28;20529;-87
2023/06/22 08:21:41;;;;;;;10.45;8.63;;;;;;;25.45;100.00;100902.00;6237548;28;20052;-87
2023/06/22 08:24:42;;;;;;;10.15;8.15;;;;;;;25.48;100.00;100899.72;6238818;28;20042;-87
2023/06/22 08:27:50;;;;;;;11.25;8.07;;;;;;;25.54;100.00;100901.56;6211924;28;20509;-87
2023/06/22 08:30:52;;;;;;;11.48;8.40;;;;;;;25.62;100.00;100894.38;6247110;28;20474;-87
2023/06/22 08:33:53;;;;;;;10.35;7.72;;;;;;;25.71;100.00;100907.19;6235740;28;20522;-87
2023/06/22 08:36:55;;;;;;;11.02;7.30;;;;;;;25.83;100.00;100909.97;6249041;28;20041;-87
2023/06/22 08:39:59;;;;;;;8.90;7.80;;;;;;;25.94;100.00;100911.19;6249174;28;20057;-87
2023/06/22 08:43:01;;;;;;;8.57;6.70;;;;;;;26.00;100.00;100912.97;6241968;28;20033;-87
2023/06/22 08:46:03;;;;;;;7.65;6.85;;;;;;;26.02;100.00;100910.09;6257457;28;20531;-86
2023/06/22 08:49:04;;;;;;;7.97;6.90;;;;;;;26.05;100.00;100894.56;6248765;28;20043;-87
2023/06/22 08:52:07;;;;;;;8.38;7.40;;;;;;;26.27;100.00;100891.56;6248169;28;20049;-87
2023/06/22 08:55:10;;;;;;;8.90;7.28;;;;;;;26.53;100.00;100894.00;6241950;28;20065;-87
2023/06/22 08:58:15;;;;;;;8.10;7.18;;;;;;;26.74;100.00;100884.03;6244990;28;20057;-87
2023/06/22 09:01:17;;;;;;;8.10;7.20;;;;;;;26.94;100.00;100887.28;6245959;28;20056;-87
2023/06/22 09:04:18;;;;;;;9.48;7.63;;;;;;;26.99;100.00;100889.28;6238514;28;20064;-87
2023/06/22 09:07:22;;;;;;;10.52;7.38;;;;;;;26.82;100.00;100884.53;6250914;28;20045;-87
2023/06/22 09:10:25;;;;;;;9.02;7.70;;;;;;;26.83;100.00;100880.88;6252037;28;20041;-87
2023/06/22 09:13:30;;;;;;;9.25;7.93;;;;;;;26.94;100.00;100870.53;6246127;28;20506;-87
2023/06/22 09:16:32;;;;;;;10.02;7.43;;;;;;;27.28;100.00;100859.34;6244495;28;20037;-87
2023/06/22 09:19:33;;;;;;;9.77;8.10;;;;;;;27.55;100.00;100860.81;6254661;28;20495;-87
2023/06/22 09:22:35;;;;;;;10.40;7.70;;;;;;;27.70;100.00;100861.22;6241976;28;20192;-87
2023/06/22 09:25:37;;;;;;;11.23;8.32;;;;;;;27.69;100.00;100857.75;6254450;28;20060;-87
2023/06/22 09:28:39;;;;;;;9.13;8.00;;;;;;;27.58;100.00;100855.88;6256411;28;20319;-87
2023/06/22 09:31:40;;;;;;;10.45;7.90;;;;;;;27.55;100.00;100847.53;6252645;28;20078;-87
2023/06/22 09:34:43;;;;;;;11.68;8.20;;;;;;;27.46;100.00;100839.88;6257234;28;20628;-87
2023/06/22 09:37:45;;;;;;;9.77;8.50;;;;;;;27.60;100.00;100851.16;6262513;28;20061;-87
2023/06/22 09:40:47;;;;;;;10.68;7.43;;;;;;;27.80;100.00;100853.53;6244303;28;20037;-87
2023/06/22 09:43:48;;;;;;;9.77;8.07;;;;;;;27.83;100.00;100854.94;6240737;28;20089;-87
2023/06/22 09:46:50;;;;;;;10.93;8.60;;;;;;;27.90;100.00;100860.94;6242109;28;20540;-87
2023/06/22 09:49:54;;;;;;;10.85;8.25;;;;;;;27.79;100.00;100853.75;6240002;28;20037;-87
2023/06/22 09:52:55;;;;;;;12.40;8.73;;;;;;;27.77;100.00;100848.63;6236557;28;20100;-87
2023/06/22 09:55:57;;;;;;;11.18;8.80;;;;;;;27.84;100.00;100843.25;6242212;28;20041;-87
2023/06/22 09:58:59;;;;;;;10.02;8.48;;;;;;;28.01;100.00;100838.88;6240894;28;20819;-87
2023/06/22 10:02:18;;;;;;;11.77;8.70;;;;;;;28.08;100.00;100833.47;6234256;28;20033;-87
2023/06/22 10:05:20;;;;;;;11.00;8.57;;;;;;;28.04;100.00;100832.28;6239419;28;20045;-87
2023/06/22 10:08:22;;;;;;;9.45;8.55;;;;;;;27.90;100.00;100837.84;6244457;28;20041;-87
2023/06/22 10:11:29;;;;;;;10.02;8.55;;;;;;;27.74;100.00;100835.78;6238249;28;20051;-87
2023/06/22 10:14:31;;;;;;;10.00;9.00;;;;;;;27.39;100.00;100825.84;6253356;28;20076;-87
2023/06/22 10:17:32;;;;;;;10.18;8.98;;;;;;;27.15;100.00;100824.91;6245830;28;20147;-87
2023/06/22 10:20:35;;;;;;;9.68;8.60;;;;;;;26.90;100.00;100824.19;6259877;28;20115;-87
2023/06/22 10:23:36;;;;;;;9.57;8.35;;;;;;;26.85;100.00;100823.00;6248405;28;20045;-87
2023/06/22 10:26:38;;;;;;;9.05;7.95;;;;;;;26.97;100.00;100814.28;6235609;28;20159;-87
2023/06/22 10:29:41;;;;;;;11.15;8.80;;;;;;;27.13;100.00;100820.84;6253130;28;20041;-87
2023/06/22 10:32:43;;;;;;;12.65;9.23;;;;;;;27.20;100.00;100819.75;6246375;28;20309;-87
2023/06/22 10:35:45;;;;;;;9.73;8.52;;;;;;;27.19;100.00;100812.81;6234078;28;20088;-87
2023/06/22 10:38:47;;;;;;;10.70;8.95;;;;;;;27.16;100.00;100813.25;6263505;28;20048;-87
2023/06/22 10:41:49;;;;;;;10.07;9.07;;;;;;;27.15;100.00;100811.59;6248164;28;20048;-87
2023/06/22 10:44:51;;;;;;;10.48;9.20;;;;;;;27.35;100.00;100810.56;6249342;28;20127;-87
2023/06/22 10:47:53;;;;;;;12.48;9.38;;;;;;;27.53;100.00;100812.38;6234829;28;20120;-87
2023/06/22 10:50:54;;;;;;;13.38;9.85;;;;;;;27.74;100.00;100803.06;6240088;28;20045;-87
2023/06/22 10:53:56;;;;;;;10.95;9.85;;;;;;;27.75;100.00;100796.69;6245787;28;20415;-87
2023/06/22 10:56:58;;;;;;;16.13;9.38;;;;;;;27.70;100.00;100792.06;6253334;28;20048;-87
2023/06/22 11:00:00;;;;;;;15.13;11.10;;;;;;;27.74;100.00;100779.94;6239716;28;20448;-87
2023/06/22 11:03:02;;;;;;;12.02;10.18;;;;;;;27.95;100.00;100780.44;6238926;28;20059;-87
2023/06/22 11:06:04;;;;;;;12.18;10.05;;;;;;;28.13;100.00;100786.47;6238982;28;20120;-87
2023/06/22 11:09:06;;;;;;;11.25;10.00;;;;;;;28.27;100.00;100786.25;6238120;28;20045;-87
2023/06/22 11:12:12;;;;;;;12.70;10.57;;;;;;;28.23;100.00;100785.09;6238513;28;20054;-87
2023/06/22 11:15:14;;;;;;;11.15;10.02;;;;;;;28.10;100.00;100781.63;6244853;28;20041;-87
2023/06/22 11:18:16;;;;;;;10.80;9.70;;;;;;;28.02;100.00;100778.47;6258459;28;20037;-87
2023/06/22 11:21:17;;;;;;;12.70;10.93;;;;;;;27.95;100.00;100781.28;6249780;28;20410;-87
2023/06/22 11:24:19;;;;;;;11.80;10.55;;;;;;;27.88;100.00;100778.72;6236175;28;20045;-87
2023/06/22 11:27:21;;;;;;;12.35;11.15;;;;;;;28.00;100.00;100775.25;6243755;28;20045;-87
2023/06/22 11:30:23;;;;;;;12.43;11.23;;;;;;;28.26;100.00;100768.66;6249682;28;20588;-87
2023/06/22 11:33:25;;;;;;;14.02;11.57;;;;;;;28.53;100.00;100769.00;6255124;28;20049;-87
2023/06/22 11:36:29;;;;;;;14.25;11.40;;;;;;;28.80;100.00;100769.28;6241075;28;20410;-87
2023/06/22 11:39:30;;;;;;;14.38;12.88;;;;;;;29.42;100.00;100758.72;6241328;28;20065;-87
2023/06/22 11:42:43;;;;;;;13.70;11.20;;;;;;;30.62;100.00;100752.25;6261492;28;20072;-87
2023/06/22 11:45:45;;;;;;;13.38;10.60;;;;;;;31.69;100.00;100734.59;6242303;28;20041;-88
2023/06/22 11:48:47;;;;;;;12.10;10.98;;;;;;;32.05;100.00;100726.00;6221713;28;20046;-87
2023/06/22 11:51:49;;;;;;;11.68;10.48;;;;;;;31.93;100.00;100721.63;6237643;28;20088;-88
2023/06/22 11:54:51;;;;;;;13.75;10.15;;;;;;;32.02;100.00;100724.66;6229606;28;20045;-87
2023/06/22 11:57:55;;;;;;;11.13;9.63;;;;;;;32.04;100.00;100711.81;6237841;28;20045;-87
2023/06/22 12:00:57;;;;;;;10.82;9.73;;;;;;;31.47;100.00;100701.78;6240275;28;20296;-88
2023/06/22 12:03:59;;;;;;;13.20;9.30;;;;;;;30.76;100.00;100693.84;6240869;28;20121;-87
2023/06/22 12:07:02;;;;;;;10.23;8.75;;;;;;;30.44;100.00;100700.75;6239027;28;20073;-87
2023/06/22 12:10:05;;;;;;;10.40;9.23;;;;;;;30.42;100.00;100700.16;6237902;28;20080;-87
2023/06/22 12:13:07;;;;;;;11.13;8.73;;;;;;;30.60;100.00;100692.88;6237036;28;20128;-88
2023/06/22 12:16:09;;;;;;;10.05;8.98;;;;;;;30.77;100.00;100693.63;6253999;28;20040;-88
2023/06/22 12:19:11;;;;;;;11.50;9.93;;;;;;;30.82;100.00;100680.31;6252667;28;20047;-88
2023/06/22 12:22:13;;;;;;;10.65;9.43;;;;;;;30.93;100.00;100677.75;6251698;28;20410;-88
2023/06/22 12:25:15;;;;;;;16.20;9.98;;;;;;;30.98;100.00;100675.13;6253484;28;20056;-88
2023/06/22 12:28:17;;;;;;;11.85;10.25;;;;;;;30.93;100.00;100672.41;6255472;28;20033;-87
2023/06/22 12:31:19;;;;;;;11.40;9.50;;;;;;;30.78;100.00;100665.84;6236384;28;20479;-88
2023/06/22 12:34:24;;;;;;;13.68;10.07;;;;;;;30.77;100.00;100664.22;6241244;28;20605;-92
2023/06/22 12:37:27;;;;;;;11.10;10.00;;;;;;;30.93;100.00;100670.53;6227924;28;20049;-91
2023/06/22 12:40:29;;;;;;;10.73;9.65;;;;;;;31.08;100.00;100662.66;6235901;28;20120;-91
2023/06/22 12:43:31;;;;;;;11.57;9.40;;;;;;;31.04;100.00;100658.88;6236289;28;20107;-92
2023/06/22 12:46:37;;;;;;;11.15;9.95;;;;;;;30.88;100.00;100654.44;6236832;28;20052;-92
2023/06/22 12:49:39;;;;;;;11.30;9.32;;;;;;;30.51;100.00;100646.28;6244676;28;20623;-92
2023/06/22 12:52:42;;;;;;;10.30;9.30;;;;;;;30.17;100.00;100638.41;6240634;28;20049;-92
2023/06/22 12:55:44;;;;;;;10.40;9.40;;;;;;;29.83;100.00;100633.97;6238786;28;20063;-92
2023/06/22 12:58:46;;;;;;;13.93;11.52;;;;;;;29.55;100.00;100632.22;6253364;28;20041;-92
2023/06/22 13:01:47;;;;;;;13.02;10.70;;;;;;;29.36;100.00;100631.66;6240670;28;20053;-91
2023/06/22 13:04:49;;;;;;;17.13;13.57;;;;;;;29.11;100.00;100623.28;6250193;28;20072;-90
2023/06/22 13:07:51;;;;;;;14.57;13.07;;;;;;;28.10;100.00;100621.94;6240000;28;20041;-91
2023/06/22 13:10:53;;;;;;;16.88;14.65;;;;;;;26.64;100.00;100616.31;6235489;28;20037;-89
2023/06/22 13:13:54;;;;;;;13.35;11.95;;;;;;;25.67;100.00;100621.47;6208616;28;20050;-89
2023/06/22 13:16:56;;;;;;;15.15;12.60;;;;;;;25.01;100.00;100612.97;6246687;28;20347;-89
2023/06/22 13:19:58;;;;;;;13.90;12.60;;;;;;;24.73;100.00;100613.34;6248627;28;20116;-89
2023/06/22 13:23:00;;;;;;;16.00;13.13;;;;;;;24.82;100.00;100613.91;6239123;28;20048;-88
2023/06/22 13:26:02;;;;;;;14.95;13.00;;;;;;;25.09;100.00;100617.19;6242430;28;20040;-89
2023/06/22 13:29:04;;;;;;;15.23;13.70;;;;;;;25.60;100.00;100616.22;6240635;28;20033;-88
2023/06/22 13:32:07;;;;;;;14.63;12.88;;;;;;;25.99;100.00;100616.88;6242246;28;20043;-89
2023/06/22 13:35:12;;;;;;;13.35;11.80;;;;;;;26.10;100.00;100613.47;6232169;28;20046;-89
2023/06/22 13:38:14;;;;;;;13.18;11.85;;;;;;;26.09;100.00;100625.13;6247538;28;20063;-89
2023/06/22 13:41:16;;;;;;;12.48;11.20;;;;;;;26.04;100.00;100619.69;6218406;28;20107;-89
2023/06/22 13:44:17;;;;;;;14.18;12.63;;;;;;;26.02;100.00;100628.88;6239632;28;20059;-89
2023/06/22 13:47:19;;;;;;;13.38;12.07;;;;;;;26.05;100.00;100625.78;6252309;28;20067;-90